WLFPK30 KNZY-KNZY
Flight info
| Callsign | WLFPK30 |
|---|---|
| Flight time | 0h 3m |
| Altitude | 1000 |
| Route | VFR OPR |
| Aircraft | H60/L-VD/C |
Departure
| Time | 2026-04-24 00:47 |
|---|---|
| Airport | North Island Naval Air Station-Halsey Field (KNZY) |
Arrival
| Time | 2026-04-24 00:50 |
|---|---|
| Airport | North Island Naval Air Station-Halsey Field (KNZY) |
| Time | Latitude | Longitude | Altitude | Speed | Heading |
|---|---|---|---|---|---|
| 2026-04-24 00:31 | 32.69954 | -117.20673 | 31 ft | 0 kts | 308° |
| 2026-04-24 00:42 | 32.69956 | -117.20677 | 31 ft | 3 kts | 309° |
| 2026-04-24 00:42 | 32.69986 | -117.20697 | 31 ft | 2 kts | 34° |
| 2026-04-24 00:43 | 32.69989 | -117.20695 | 31 ft | 3 kts | 328° |
| 2026-04-24 00:43 | 32.70004 | -117.20733 | 32 ft | 5 kts | 293° |
| 2026-04-24 00:43 | 32.70028 | -117.20783 | 32 ft | 9 kts | 300° |
| 2026-04-24 00:43 | 32.70057 | -117.20848 | 31 ft | 7 kts | 269° |
| 2026-04-24 00:44 | 32.70028 | -117.20889 | 31 ft | 8 kts | 213° |
| 2026-04-24 00:44 | 32.69970 | -117.20933 | 29 ft | 12 kts | 212° |
| 2026-04-24 00:44 | 32.69915 | -117.20993 | 27 ft | 10 kts | 294° |
| 2026-04-24 00:44 | 32.69933 | -117.21028 | 27 ft | 0 kts | 302° |
| 2026-04-24 00:45 | 32.69893 | -117.21162 | 107 ft | 46 kts | 243° |
| 2026-04-24 00:45 | 32.69445 | -117.21462 | 312 ft | 99 kts | 200° |
| 2026-04-24 00:46 | 32.68703 | -117.21653 | 342 ft | 115 kts | 196° |
| 2026-04-24 00:46 | 32.67893 | -117.21833 | 367 ft | 121 kts | 196° |
| 2026-04-24 00:46 | 32.67044 | -117.22000 | 354 ft | 126 kts | 188° |
| 2026-04-24 00:46 | 32.66155 | -117.21823 | 242 ft | 142 kts | 159° |
| 2026-04-24 00:47 | 32.65412 | -117.21056 | 460 ft | 139 kts | 134° |
| 2026-04-24 00:47 | 32.64888 | -117.20139 | 800 ft | 129 kts | 121° |
| 2026-04-24 00:47 | 32.64249 | -117.19518 | 601 ft | 117 kts | 182° |
| 2026-04-24 00:47 | 32.63753 | -117.19995 | 485 ft | 103 kts | 262° |
| 2026-04-24 00:48 | 32.63641 | -117.20812 | 450 ft | 101 kts | 265° |
| 2026-04-24 00:48 | 32.63542 | -117.21637 | 456 ft | 103 kts | 265° |
| 2026-04-24 00:48 | 32.63370 | -117.22430 | 458 ft | 89 kts | 262° |
| 2026-04-24 00:48 | 32.63410 | -117.23072 | 465 ft | 86 kts | 284° |
| 2026-04-24 00:49 | 32.63733 | -117.23818 | 448 ft | 116 kts | 323° |
| 2026-04-24 00:49 | 32.64547 | -117.24093 | 440 ft | 130 kts | 8° |
| 2026-04-24 00:49 | 32.65149 | -117.23552 | 405 ft | 100 kts | 82° |
| 2026-04-24 00:49 | 32.65196 | -117.22849 | 380 ft | 68 kts | 167° |
| 2026-04-24 00:50 | 32.64887 | -117.22857 | 315 ft | 58 kts | 246° |
| 2026-04-24 00:50 | 32.64868 | -117.23235 | 358 ft | 48 kts | 340° |
| 2026-04-24 00:50 | 32.65164 | -117.23129 | 277 ft | 53 kts | 91° |
| 2026-04-24 00:50 | 32.65200 | -117.22661 | 235 ft | 58 kts | 85° |
| 2026-04-24 00:51 | 32.65328 | -117.22198 | 240 ft | 57 kts | 104° |
| 2026-04-24 00:51 | 32.65139 | -117.21868 | 226 ft | 60 kts | 157° |
| 2026-04-24 00:51 | 32.64673 | -117.21908 | 276 ft | 75 kts | 214° |
| 2026-04-24 00:51 | 32.64241 | -117.22330 | 351 ft | 89 kts | 231° |
| 2026-04-24 00:52 | 32.63752 | -117.22832 | 409 ft | 96 kts | 230° |
| 2026-04-24 00:52 | 32.63172 | -117.23308 | 361 ft | 108 kts | 209° |
| 2026-04-24 00:52 | 32.62411 | -117.23519 | 305 ft | 115 kts | 197° |
| 2026-04-24 00:52 | 32.61632 | -117.23674 | 295 ft | 113 kts | 197° |
| 2026-04-24 00:53 | 32.60859 | -117.23812 | 297 ft | 112 kts | 197° |
| 2026-04-24 00:53 | 32.60092 | -117.23975 | 294 ft | 111 kts | 197° |
| 2026-04-24 00:53 | 32.59327 | -117.24146 | 296 ft | 113 kts | 197° |
| 2026-04-24 00:53 | 32.58561 | -117.24316 | 297 ft | 116 kts | 197° |
| 2026-04-24 00:54 | 32.57899 | -117.24536 | 208 ft | 73 kts | 206° |
| 2026-04-24 00:54 | 32.57631 | -117.24731 | 203 ft | 19 kts | 213° |
| 2026-04-24 00:54 | 32.57609 | -117.24747 | 200 ft | 0 kts | 199° |
| 2026-04-24 00:54 | 32.57608 | -117.24746 | 203 ft | 1 kts | 199° |
| 2026-04-24 00:55 | 32.57608 | -117.24747 | 205 ft | 1 kts | 199° |
| 2026-04-24 00:55 | 32.57609 | -117.24748 | 205 ft | 0 kts | 199° |
| 2026-04-24 00:56 | 32.57608 | -117.24747 | 206 ft | 1 kts | 199° |
| 2026-04-24 00:56 | 32.57608 | -117.24746 | 206 ft | 0 kts | 199° |
| 2026-04-24 00:56 | 32.57609 | -117.24750 | 210 ft | 1 kts | 197° |
| 2026-04-24 00:57 | 32.57610 | -117.24753 | 209 ft | 0 kts | 197° |
| 2026-04-24 00:57 | 32.57609 | -117.24750 | 211 ft | 1 kts | 197° |
| 2026-04-24 00:57 | 32.57607 | -117.24749 | 205 ft | 1 kts | 197° |
| 2026-04-24 00:58 | 32.57608 | -117.24754 | 205 ft | 0 kts | 197° |
| 2026-04-24 00:58 | 32.57607 | -117.24753 | 207 ft | 1 kts | 197° |
| 2026-04-24 00:58 | 32.57606 | -117.24749 | 207 ft | 0 kts | 197° |
| 2026-04-24 00:59 | 32.57607 | -117.24755 | 207 ft | 0 kts | 197° |
| 2026-04-24 00:59 | 32.57606 | -117.24755 | 217 ft | 0 kts | 197° |
| 2026-04-24 00:59 | 32.57605 | -117.24750 | 207 ft | 0 kts | 197° |
| 2026-04-24 00:59 | 32.57604 | -117.24750 | 208 ft | 0 kts | 197° |
| 2026-04-24 01:00 | 32.57605 | -117.24755 | 204 ft | 1 kts | 197° |
| 2026-04-24 01:00 | 32.57605 | -117.24754 | 201 ft | 0 kts | 199° |
| 2026-04-24 01:00 | 32.57605 | -117.24755 | 202 ft | 1 kts | 199° |
| 2026-04-24 01:00 | 32.57593 | -117.24765 | 205 ft | 16 kts | 207° |
| 2026-04-24 01:01 | 32.57308 | -117.25042 | 380 ft | 85 kts | 230° |
| 2026-04-24 01:01 | 32.56791 | -117.25672 | 380 ft | 125 kts | 232° |
| 2026-04-24 01:01 | 32.56172 | -117.26524 | 265 ft | 146 kts | 235° |
| 2026-04-24 01:01 | 32.55551 | -117.27495 | 312 ft | 146 kts | 237° |
| 2026-04-24 01:02 | 32.54956 | -117.28437 | 295 ft | 142 kts | 237° |
| 2026-04-24 01:02 | 32.54358 | -117.29395 | 298 ft | 146 kts | 237° |
| 2026-04-24 01:02 | 32.53762 | -117.30342 | 304 ft | 143 kts | 237° |
| 2026-04-24 01:02 | 32.53178 | -117.31288 | 306 ft | 141 kts | 237° |
| 2026-04-24 01:03 | 32.52598 | -117.32235 | 307 ft | 141 kts | 237° |
| 2026-04-24 01:03 | 32.52020 | -117.33188 | 306 ft | 142 kts | 237° |
| 2026-04-24 01:03 | 32.51439 | -117.34164 | 308 ft | 142 kts | 237° |
| 2026-04-24 01:03 | 32.50859 | -117.35128 | 309 ft | 143 kts | 237° |
| 2026-04-24 01:04 | 32.50257 | -117.36080 | 308 ft | 143 kts | 237° |
| 2026-04-24 01:04 | 32.49658 | -117.37033 | 313 ft | 147 kts | 237° |
| 2026-04-24 01:04 | 32.49056 | -117.37994 | 315 ft | 140 kts | 237° |
| 2026-04-24 01:04 | 32.48458 | -117.38953 | 310 ft | 145 kts | 237° |
| 2026-04-24 01:05 | 32.47866 | -117.39910 | 312 ft | 144 kts | 237° |
| 2026-04-24 01:05 | 32.47281 | -117.40837 | 313 ft | 145 kts | 236° |
| 2026-04-24 01:05 | 32.46619 | -117.41726 | 310 ft | 143 kts | 232° |
| 2026-04-24 01:05 | 32.45950 | -117.42606 | 313 ft | 145 kts | 232° |
| 2026-04-24 01:06 | 32.45295 | -117.43459 | 316 ft | 145 kts | 232° |
| 2026-04-24 01:06 | 32.44626 | -117.44336 | 320 ft | 143 kts | 232° |
| 2026-04-24 01:06 | 32.43951 | -117.45202 | 317 ft | 142 kts | 232° |
| 2026-04-24 01:06 | 32.43281 | -117.46075 | 317 ft | 144 kts | 232° |
| 2026-04-24 01:07 | 32.42588 | -117.46964 | 317 ft | 144 kts | 232° |
| 2026-04-24 01:07 | 32.41897 | -117.47840 | 317 ft | 147 kts | 232° |
| 2026-04-24 01:07 | 32.41214 | -117.48732 | 321 ft | 146 kts | 232° |
| 2026-04-24 01:07 | 32.40529 | -117.49601 | 317 ft | 143 kts | 232° |
| 2026-04-24 01:08 | 32.39856 | -117.50449 | 321 ft | 137 kts | 232° |
| 2026-04-24 01:08 | 32.39178 | -117.51286 | 320 ft | 141 kts | 232° |
| 2026-04-24 01:08 | 32.38496 | -117.52115 | 321 ft | 142 kts | 232° |
| 2026-04-24 01:08 | 32.37829 | -117.52962 | 324 ft | 143 kts | 232° |
| 2026-04-24 01:09 | 32.37165 | -117.53809 | 323 ft | 137 kts | 232° |
| 2026-04-24 01:09 | 32.36496 | -117.54659 | 322 ft | 140 kts | 232° |
| 2026-04-24 01:09 | 32.35817 | -117.55497 | 322 ft | 142 kts | 231° |
| 2026-04-24 01:09 | 32.35151 | -117.56341 | 321 ft | 144 kts | 232° |
| 2026-04-24 01:10 | 32.34480 | -117.57191 | 324 ft | 136 kts | 232° |
| 2026-04-24 01:10 | 32.33833 | -117.58053 | 324 ft | 140 kts | 232° |
| 2026-04-24 01:10 | 32.33154 | -117.58892 | 325 ft | 142 kts | 232° |
| 2026-04-24 01:10 | 32.32493 | -117.59755 | 326 ft | 142 kts | 232° |
| 2026-04-24 01:11 | 32.31827 | -117.60602 | 327 ft | 139 kts | 232° |
| 2026-04-24 01:11 | 32.31169 | -117.61462 | 323 ft | 140 kts | 232° |
| 2026-04-24 01:11 | 32.30712 | -117.62008 | 324 ft | 138 kts | 232° |
| 2026-04-24 01:11 | 32.30006 | -117.62831 | 325 ft | 142 kts | 232° |
| 2026-04-24 01:12 | 32.29322 | -117.63657 | 327 ft | 144 kts | 232° |
| 2026-04-24 01:12 | 32.28632 | -117.64503 | 328 ft | 143 kts | 232° |
| 2026-04-24 01:12 | 32.27933 | -117.65310 | 326 ft | 138 kts | 227° |
| 2026-04-24 01:12 | 32.27158 | -117.66042 | 325 ft | 144 kts | 226° |
| 2026-04-24 01:13 | 32.26384 | -117.66792 | 329 ft | 148 kts | 226° |
| 2026-04-24 01:13 | 32.25593 | -117.67542 | 325 ft | 140 kts | 226° |
| 2026-04-24 01:13 | 32.24808 | -117.68279 | 325 ft | 149 kts | 226° |
| 2026-04-24 01:13 | 32.24042 | -117.69016 | 322 ft | 141 kts | 226° |
| 2026-04-24 01:14 | 32.23253 | -117.69747 | 330 ft | 142 kts | 226° |
| 2026-04-24 01:14 | 32.22477 | -117.70504 | 329 ft | 144 kts | 226° |
| 2026-04-24 01:14 | 32.21732 | -117.71249 | 330 ft | 137 kts | 226° |
| 2026-04-24 01:14 | 32.20962 | -117.71986 | 327 ft | 144 kts | 226° |
| 2026-04-24 01:15 | 32.20185 | -117.72728 | 332 ft | 147 kts | 226° |
| 2026-04-24 01:15 | 32.19399 | -117.73490 | 331 ft | 148 kts | 226° |
| 2026-04-24 01:15 | 32.18604 | -117.74229 | 329 ft | 143 kts | 226° |
| 2026-04-24 01:15 | 32.17831 | -117.74993 | 334 ft | 148 kts | 226° |
| 2026-04-24 01:16 | 32.17069 | -117.75741 | 332 ft | 141 kts | 226° |
| 2026-04-24 01:16 | 32.16296 | -117.76485 | 332 ft | 147 kts | 226° |
| 2026-04-24 01:16 | 32.15533 | -117.77246 | 332 ft | 142 kts | 226° |
| 2026-04-24 01:16 | 32.14765 | -117.78002 | 336 ft | 147 kts | 226° |
| 2026-04-24 01:17 | 32.13993 | -117.78793 | 332 ft | 146 kts | 226° |
| 2026-04-24 01:17 | 32.13217 | -117.79530 | 329 ft | 144 kts | 226° |
| 2026-04-24 01:17 | 32.12443 | -117.80297 | 333 ft | 145 kts | 226° |
| 2026-04-24 01:17 | 32.11650 | -117.81074 | 333 ft | 146 kts | 226° |
| 2026-04-24 01:18 | 32.10871 | -117.81825 | 328 ft | 145 kts | 226° |
| 2026-04-24 01:18 | 32.10110 | -117.82590 | 332 ft | 142 kts | 226° |
| 2026-04-24 01:18 | 32.09331 | -117.83329 | 332 ft | 141 kts | 225° |
| 2026-04-24 01:18 | 32.08591 | -117.84041 | 335 ft | 141 kts | 226° |
| 2026-04-24 01:19 | 32.07813 | -117.84794 | 338 ft | 145 kts | 226° |
| 2026-04-24 01:19 | 32.07033 | -117.85493 | 339 ft | 138 kts | 226° |
| 2026-04-24 01:19 | 32.06276 | -117.86212 | 336 ft | 141 kts | 226° |
| 2026-04-24 01:19 | 32.05501 | -117.86934 | 337 ft | 143 kts | 226° |
| 2026-04-24 01:20 | 32.04726 | -117.87671 | 338 ft | 145 kts | 226° |
| 2026-04-24 01:20 | 32.03939 | -117.88414 | 338 ft | 141 kts | 226° |
| 2026-04-24 01:20 | 32.03190 | -117.89133 | 336 ft | 142 kts | 226° |
| 2026-04-24 01:20 | 32.02400 | -117.89880 | 339 ft | 144 kts | 226° |
| 2026-04-24 01:21 | 32.01647 | -117.90585 | 335 ft | 141 kts | 226° |
| 2026-04-24 01:21 | 32.00875 | -117.91329 | 335 ft | 141 kts | 226° |
| 2026-04-24 01:21 | 32.00104 | -117.92066 | 339 ft | 143 kts | 226° |
| 2026-04-24 01:21 | 31.99323 | -117.92817 | 326 ft | 144 kts | 226° |
| 2026-04-24 01:22 | 31.98532 | -117.93587 | 313 ft | 151 kts | 226° |
| 2026-04-24 01:22 | 31.97728 | -117.94360 | 315 ft | 145 kts | 226° |
| 2026-04-24 01:22 | 31.96948 | -117.95089 | 320 ft | 144 kts | 226° |
| 2026-04-24 01:22 | 31.96136 | -117.95832 | 320 ft | 146 kts | 226° |
| 2026-04-24 01:23 | 31.95347 | -117.96567 | 320 ft | 144 kts | 226° |
| 2026-04-24 01:23 | 31.94526 | -117.97283 | 320 ft | 148 kts | 226° |
| 2026-04-24 01:23 | 31.93751 | -117.98027 | 318 ft | 146 kts | 226° |
| 2026-04-24 01:23 | 31.92924 | -117.98778 | 319 ft | 149 kts | 226° |
| 2026-04-24 01:24 | 31.92120 | -117.99519 | 317 ft | 143 kts | 226° |
| 2026-04-24 01:24 | 31.91326 | -118.00239 | 319 ft | 147 kts | 226° |
| 2026-04-24 01:24 | 31.90522 | -118.00994 | 319 ft | 147 kts | 226° |
| 2026-04-24 01:24 | 31.89740 | -118.01737 | 321 ft | 144 kts | 226° |
| 2026-04-24 01:25 | 31.88976 | -118.02460 | 316 ft | 144 kts | 226° |
| 2026-04-24 01:25 | 31.88180 | -118.03211 | 315 ft | 141 kts | 226° |
| 2026-04-24 01:25 | 31.87435 | -118.03892 | 318 ft | 136 kts | 226° |
| 2026-04-24 01:25 | 31.86676 | -118.04602 | 321 ft | 146 kts | 226° |
| 2026-04-24 01:26 | 31.85899 | -118.05330 | 321 ft | 143 kts | 226° |
| 2026-04-24 01:26 | 31.85123 | -118.06060 | 318 ft | 144 kts | 226° |
| 2026-04-24 01:26 | 31.84357 | -118.06809 | 319 ft | 142 kts | 226° |
| 2026-04-24 01:26 | 31.83572 | -118.07544 | 323 ft | 147 kts | 226° |
| 2026-04-24 01:27 | 31.82792 | -118.08272 | 320 ft | 140 kts | 226° |
| 2026-04-24 01:27 | 31.82004 | -118.08979 | 320 ft | 146 kts | 226° |
| 2026-04-24 01:27 | 31.81202 | -118.09701 | 319 ft | 144 kts | 226° |
| 2026-04-24 01:27 | 31.80396 | -118.10398 | 322 ft | 145 kts | 226° |
| 2026-04-24 01:28 | 31.79586 | -118.11110 | 319 ft | 148 kts | 226° |
| 2026-04-24 01:28 | 31.78750 | -118.11820 | 320 ft | 149 kts | 226° |
| 2026-04-24 01:28 | 31.77949 | -118.12548 | 316 ft | 145 kts | 226° |
| 2026-04-24 01:28 | 31.77142 | -118.13276 | 317 ft | 150 kts | 225° |
| 2026-04-24 01:29 | 31.76319 | -118.14013 | 324 ft | 146 kts | 226° |
| 2026-04-24 01:29 | 31.75514 | -118.14730 | 321 ft | 147 kts | 226° |
| 2026-04-24 01:29 | 31.74701 | -118.15428 | 321 ft | 143 kts | 226° |
| 2026-04-24 01:29 | 31.73898 | -118.16145 | 318 ft | 148 kts | 226° |
| 2026-04-24 01:30 | 31.73086 | -118.16819 | 322 ft | 142 kts | 226° |
| 2026-04-24 01:30 | 31.72287 | -118.17542 | 321 ft | 146 kts | 226° |
| 2026-04-24 01:30 | 31.71483 | -118.18263 | 322 ft | 141 kts | 226° |
| 2026-04-24 01:30 | 31.70742 | -118.19022 | 321 ft | 143 kts | 237° |
| 2026-04-24 01:31 | 31.70104 | -118.19899 | 322 ft | 141 kts | 238° |
| 2026-04-24 01:31 | 31.69461 | -118.20727 | 324 ft | 139 kts | 238° |
| 2026-04-24 01:31 | 31.68834 | -118.21581 | 322 ft | 144 kts | 238° |
| 2026-04-24 01:31 | 31.68191 | -118.22472 | 320 ft | 141 kts | 238° |
| 2026-04-24 01:32 | 31.67552 | -118.23374 | 320 ft | 145 kts | 238° |
| 2026-04-24 01:32 | 31.66930 | -118.24278 | 323 ft | 142 kts | 238° |
| 2026-04-24 01:32 | 31.66279 | -118.25174 | 321 ft | 140 kts | 238° |
| 2026-04-24 01:32 | 31.65661 | -118.26075 | 322 ft | 146 kts | 238° |
| 2026-04-24 01:33 | 31.65030 | -118.26961 | 321 ft | 145 kts | 238° |
| 2026-04-24 01:33 | 31.64379 | -118.27825 | 321 ft | 144 kts | 238° |
| 2026-04-24 01:33 | 31.63721 | -118.28740 | 323 ft | 148 kts | 238° |
| 2026-04-24 01:33 | 31.63081 | -118.29616 | 323 ft | 140 kts | 238° |
| 2026-04-24 01:34 | 31.62451 | -118.30491 | 323 ft | 140 kts | 238° |
| 2026-04-24 01:34 | 31.61805 | -118.31410 | 328 ft | 149 kts | 238° |
| 2026-04-24 01:34 | 31.61132 | -118.32326 | 325 ft | 139 kts | 238° |
| 2026-04-24 01:34 | 31.60507 | -118.33209 | 327 ft | 144 kts | 238° |
| 2026-04-24 01:35 | 31.59909 | -118.34024 | 244 ft | 106 kts | 241° |
| 2026-04-24 01:35 | 31.59597 | -118.34506 | 210 ft | 50 kts | 225° |
| 2026-04-24 01:35 | 31.59361 | -118.34803 | 209 ft | 50 kts | 229° |
| 2026-04-24 01:35 | 31.59116 | -118.35091 | 214 ft | 50 kts | 230° |
| 2026-04-24 01:36 | 31.58870 | -118.35381 | 212 ft | 50 kts | 227° |
| 2026-04-24 01:36 | 31.58569 | -118.35555 | 211 ft | 50 kts | 200° |
| 2026-04-24 01:36 | 31.58275 | -118.35770 | 209 ft | 50 kts | 212° |
| 2026-04-24 01:36 | 31.57902 | -118.36048 | 259 ft | 79 kts | 231° |
| 2026-04-24 01:37 | 31.57411 | -118.36393 | 253 ft | 80 kts | 230° |
| 2026-04-24 01:37 | 31.56933 | -118.36763 | 248 ft | 82 kts | 230° |
| 2026-04-24 01:37 | 31.56464 | -118.37135 | 243 ft | 83 kts | 232° |
| 2026-04-24 01:37 | 31.56012 | -118.37538 | 242 ft | 78 kts | 232° |
| 2026-04-24 01:38 | 31.55568 | -118.37907 | 240 ft | 74 kts | 237° |
| 2026-04-24 01:38 | 31.55177 | -118.38319 | 239 ft | 76 kts | 240° |
| 2026-04-24 01:38 | 31.54780 | -118.38748 | 239 ft | 79 kts | 240° |
| 2026-04-24 01:38 | 31.54369 | -118.39186 | 239 ft | 77 kts | 240° |
| 2026-04-24 01:39 | 31.53988 | -118.39646 | 239 ft | 80 kts | 240° |
| 2026-04-24 01:39 | 31.53584 | -118.40082 | 240 ft | 75 kts | 240° |
| 2026-04-24 01:39 | 31.53185 | -118.40516 | 236 ft | 82 kts | 240° |
| 2026-04-24 01:39 | 31.52789 | -118.40977 | 242 ft | 79 kts | 240° |
| 2026-04-24 01:40 | 31.52403 | -118.41432 | 242 ft | 79 kts | 240° |
| 2026-04-24 01:40 | 31.52016 | -118.41880 | 239 ft | 77 kts | 240° |
| 2026-04-24 01:40 | 31.51633 | -118.42313 | 240 ft | 77 kts | 240° |
| 2026-04-24 01:40 | 31.51240 | -118.42733 | 239 ft | 76 kts | 240° |
| 2026-04-24 01:41 | 31.50834 | -118.43153 | 239 ft | 80 kts | 240° |
| 2026-04-24 01:41 | 31.50424 | -118.43588 | 239 ft | 80 kts | 240° |
| 2026-04-24 01:41 | 31.50043 | -118.44051 | 240 ft | 78 kts | 240° |
| 2026-04-24 01:41 | 31.49770 | -118.44506 | 241 ft | 59 kts | 275° |
| 2026-04-24 01:42 | 31.49907 | -118.44883 | 239 ft | 54 kts | 325° |
| 2026-04-24 01:42 | 31.50315 | -118.45114 | 241 ft | 66 kts | 325° |
| 2026-04-24 01:42 | 31.50724 | -118.45380 | 240 ft | 65 kts | 325° |
| 2026-04-24 01:42 | 31.51229 | -118.45451 | 233 ft | 91 kts | 31° |
| 2026-04-24 01:43 | 31.51587 | -118.44750 | 245 ft | 109 kts | 64° |
| 2026-04-24 01:43 | 31.51803 | -118.43967 | 245 ft | 96 kts | 59° |
| 2026-04-24 01:43 | 31.52013 | -118.43192 | 232 ft | 112 kts | 70° |
| 2026-04-24 01:43 | 31.51759 | -118.42265 | 229 ft | 128 kts | 141° |
| 2026-04-24 01:44 | 31.50969 | -118.41883 | 240 ft | 122 kts | 182° |
| 2026-04-24 01:44 | 31.50204 | -118.41752 | 247 ft | 103 kts | 182° |
| 2026-04-24 01:44 | 31.49531 | -118.41663 | 243 ft | 97 kts | 187° |
| 2026-04-24 01:44 | 31.48857 | -118.41586 | 244 ft | 96 kts | 187° |
| 2026-04-24 01:45 | 31.48185 | -118.41490 | 236 ft | 102 kts | 189° |
| 2026-04-24 01:45 | 31.47509 | -118.41429 | 237 ft | 97 kts | 189° |
| 2026-04-24 01:45 | 31.46822 | -118.41407 | 199 ft | 92 kts | 194° |
| 2026-04-24 01:45 | 31.46354 | -118.41442 | 203 ft | 44 kts | 166° |
| 2026-04-24 01:46 | 31.46134 | -118.41393 | 203 ft | 30 kts | 176° |
| 2026-04-24 01:46 | 31.45925 | -118.41390 | 211 ft | 30 kts | 182° |
| 2026-04-24 01:46 | 31.45716 | -118.41392 | 225 ft | 30 kts | 182° |
| 2026-04-24 01:46 | 31.45508 | -118.41405 | 241 ft | 30 kts | 184° |
| 2026-04-24 01:47 | 31.45318 | -118.41484 | 246 ft | 30 kts | 228° |
| 2026-04-24 01:47 | 31.45281 | -118.41708 | 184 ft | 30 kts | 303° |
| 2026-04-24 01:47 | 31.45455 | -118.41823 | 197 ft | 30 kts | 4° |
| 2026-04-24 01:47 | 31.45545 | -118.41644 | 192 ft | 25 kts | 111° |
| 2026-04-24 01:48 | 31.45526 | -118.41595 | 193 ft | 2 kts | 123° |
| 2026-04-24 01:48 | 31.45528 | -118.41595 | 169 ft | 3 kts | 114° |
| 2026-04-24 01:48 | 31.45520 | -118.41577 | 103 ft | 2 kts | 114° |
| 2026-04-24 01:48 | 31.45514 | -118.41561 | 55 ft | 2 kts | 138° |
| 2026-04-24 01:49 | 31.45509 | -118.41555 | 38 ft | 1 kts | 144° |
| 2026-04-24 01:49 | 31.45503 | -118.41550 | 27 ft | 1 kts | 144° |
| 2026-04-24 01:49 | 31.45497 | -118.41546 | 27 ft | 1 kts | 147° |
| 2026-04-24 01:49 | 31.45491 | -118.41541 | 22 ft | 1 kts | 144° |
| 2026-04-24 01:50 | 31.45486 | -118.41537 | 57 ft | 1 kts | 147° |
| 2026-04-24 01:50 | 31.45499 | -118.41530 | 107 ft | 5 kts | 150° |
| 2026-04-24 01:50 | 31.45543 | -118.41522 | 108 ft | 5 kts | 146° |
| 2026-04-24 01:50 | 31.45554 | -118.41532 | 120 ft | 1 kts | 146° |
| 2026-04-24 01:51 | 31.45560 | -118.41537 | 129 ft | 1 kts | 149° |
| 2026-04-24 01:51 | 31.45565 | -118.41542 | 131 ft | 1 kts | 141° |
| 2026-04-24 01:51 | 31.45570 | -118.41547 | 131 ft | 1 kts | 142° |
| 2026-04-24 01:51 | 31.45576 | -118.41552 | 137 ft | 1 kts | 146° |
| 2026-04-24 01:52 | 31.45580 | -118.41554 | 139 ft | 0 kts | 145° |
| 2026-04-24 01:52 | 31.45579 | -118.41555 | 140 ft | 0 kts | 150° |
| 2026-04-24 01:52 | 31.45579 | -118.41554 | 144 ft | 0 kts | 152° |
| 2026-04-24 01:53 | 31.45578 | -118.41554 | 147 ft | 1 kts | 147° |
| 2026-04-24 01:53 | 31.45573 | -118.41551 | 143 ft | 1 kts | 147° |
| 2026-04-24 01:53 | 31.45558 | -118.41538 | 143 ft | 2 kts | 147° |
| 2026-04-24 01:53 | 31.45548 | -118.41532 | 146 ft | 1 kts | 148° |
| 2026-04-24 01:54 | 31.45536 | -118.41539 | 115 ft | 3 kts | 149° |
| 2026-04-24 01:54 | 31.45525 | -118.41551 | 85 ft | 3 kts | 149° |
| 2026-04-24 01:54 | 31.45509 | -118.41567 | 53 ft | 2 kts | 148° |
| 2026-04-24 01:54 | 31.45506 | -118.41567 | 47 ft | 1 kts | 150° |
| 2026-04-24 01:55 | 31.45509 | -118.41559 | 56 ft | 1 kts | 153° |
| 2026-04-24 01:55 | 31.45512 | -118.41551 | 48 ft | 1 kts | 156° |
| 2026-04-24 01:55 | 31.45514 | -118.41544 | 52 ft | 1 kts | 158° |
| 2026-04-24 01:55 | 31.45516 | -118.41536 | 51 ft | 1 kts | 154° |
| 2026-04-24 01:56 | 31.45511 | -118.41548 | 49 ft | 2 kts | 152° |
| 2026-04-24 01:56 | 31.45505 | -118.41559 | 53 ft | 0 kts | 153° |
| 2026-04-24 01:56 | 31.45505 | -118.41558 | 40 ft | 0 kts | 152° |
| 2026-04-24 01:57 | 31.45506 | -118.41558 | 161 ft | 0 kts | 154° |
| 2026-04-24 01:57 | 31.45505 | -118.41558 | 166 ft | 0 kts | 152° |
| 2026-04-24 01:58 | 31.45504 | -118.41558 | 178 ft | 1 kts | 155° |
| 2026-04-24 01:58 | 31.45504 | -118.41557 | 183 ft | 0 kts | 152° |
| 2026-04-24 01:59 | 31.45503 | -118.41557 | 192 ft | 0 kts | 152° |
| 2026-04-24 01:59 | 31.45492 | -118.41550 | 196 ft | 5 kts | 152° |
| 2026-04-24 01:59 | 31.45461 | -118.41531 | 201 ft | 5 kts | 152° |
| 2026-04-24 01:59 | 31.45430 | -118.41512 | 205 ft | 5 kts | 152° |
| 2026-04-24 02:00 | 31.45399 | -118.41493 | 210 ft | 5 kts | 152° |
| 2026-04-24 02:00 | 31.45368 | -118.41473 | 212 ft | 5 kts | 152° |
| 2026-04-24 02:00 | 31.45336 | -118.41457 | 209 ft | 5 kts | 202° |
| 2026-04-24 02:00 | 31.45319 | -118.41491 | 215 ft | 5 kts | 249° |
| 2026-04-24 02:01 | 31.45304 | -118.41529 | 228 ft | 5 kts | 245° |
| 2026-04-24 02:01 | 31.45294 | -118.41568 | 242 ft | 5 kts | 268° |
| 2026-04-24 02:01 | 31.45295 | -118.41609 | 240 ft | 5 kts | 272° |
| 2026-04-24 02:01 | 31.45309 | -118.41645 | 238 ft | 5 kts | 306° |
| 2026-04-24 02:02 | 31.45329 | -118.41678 | 236 ft | 5 kts | 309° |
| 2026-04-24 02:02 | 31.45352 | -118.41709 | 242 ft | 5 kts | 312° |
| 2026-04-24 02:02 | 31.45375 | -118.41739 | 235 ft | 5 kts | 312° |
| 2026-04-24 02:02 | 31.45404 | -118.41762 | 239 ft | 5 kts | 329° |
| 2026-04-24 02:03 | 31.45473 | -118.41766 | 224 ft | 5 kts | 4° |
| 2026-04-24 02:03 | 31.45505 | -118.41750 | 217 ft | 5 kts | 37° |
| 2026-04-24 02:03 | 31.45519 | -118.41703 | 198 ft | 9 kts | 79° |
| 2026-04-24 02:04 | 31.45504 | -118.41630 | 299 ft | 11 kts | 97° |
| 2026-04-24 02:04 | 31.45494 | -118.41493 | 474 ft | 22 kts | 117° |
| 2026-04-24 02:04 | 31.45466 | -118.41328 | 676 ft | 17 kts | 189° |
| 2026-04-24 02:04 | 31.45304 | -118.41292 | 779 ft | 34 kts | 226° |
| 2026-04-24 02:05 | 31.45021 | -118.41385 | 796 ft | 46 kts | 291° |
| 2026-04-24 02:05 | 31.44850 | -118.41593 | 801 ft | 29 kts | 307° |
| 2026-04-24 02:05 | 31.44967 | -118.41879 | 799 ft | 48 kts | 319° |
| 2026-04-24 02:05 | 31.45175 | -118.42139 | 804 ft | 36 kts | 356° |
| 2026-04-24 02:06 | 31.45376 | -118.42140 | 788 ft | 29 kts | 23° |
| 2026-04-24 02:06 | 31.45571 | -118.41945 | 795 ft | 41 kts | 54° |
| 2026-04-24 02:06 | 31.45682 | -118.41671 | 786 ft | 34 kts | 116° |
| 2026-04-24 02:06 | 31.45629 | -118.41426 | 783 ft | 28 kts | 159° |
| 2026-04-24 02:07 | 31.45543 | -118.41305 | 788 ft | 13 kts | 176° |
| 2026-04-24 02:07 | 31.45456 | -118.41325 | 796 ft | 15 kts | 176° |
| 2026-04-24 02:07 | 31.45359 | -118.41420 | 801 ft | 21 kts | 176° |
| 2026-04-24 02:07 | 31.45260 | -118.41556 | 802 ft | 20 kts | 247° |
| 2026-04-24 02:08 | 31.45248 | -118.41670 | 798 ft | 11 kts | 287° |
| 2026-04-24 02:08 | 31.45337 | -118.41696 | 801 ft | 19 kts | 304° |
| 2026-04-24 02:08 | 31.45488 | -118.41733 | 876 ft | 26 kts | 22° |
| 2026-04-24 02:08 | 31.45640 | -118.41609 | 1004 ft | 47 kts | 92° |
| 2026-04-24 02:09 | 31.45733 | -118.41155 | 1130 ft | 54 kts | 163° |
| 2026-04-24 02:09 | 31.45607 | -118.40903 | 1104 ft | 22 kts | 179° |
| 2026-04-24 02:09 | 31.45537 | -118.41077 | 970 ft | 18 kts | 177° |
| 2026-04-24 02:09 | 31.45533 | -118.41123 | 858 ft | 1 kts | 179° |
| 2026-04-24 02:10 | 31.45532 | -118.41124 | 741 ft | 0 kts | 179° |
| 2026-04-24 02:10 | 31.45519 | -118.41214 | 490 ft | 22 kts | 193° |
| 2026-04-24 02:10 | 31.45490 | -118.41364 | 345 ft | 12 kts | 187° |
| 2026-04-24 02:10 | 31.45454 | -118.41395 | 212 ft | 9 kts | 200° |
| 2026-04-24 02:11 | 31.45348 | -118.41395 | 187 ft | 19 kts | 237° |
| 2026-04-24 02:11 | 31.45305 | -118.41575 | 266 ft | 29 kts | 281° |
| 2026-04-24 02:11 | 31.45295 | -118.41833 | 402 ft | 30 kts | 320° |
| 2026-04-24 02:11 | 31.45512 | -118.41942 | 429 ft | 44 kts | 11° |
| 2026-04-24 02:12 | 31.45743 | -118.41708 | 378 ft | 54 kts | 92° |
| 2026-04-24 02:12 | 31.45666 | -118.41317 | 277 ft | 39 kts | 167° |
| 2026-04-24 02:12 | 31.45592 | -118.41256 | 216 ft | 1 kts | 176° |
| 2026-04-24 02:12 | 31.45591 | -118.41256 | 201 ft | 0 kts | 176° |
| 2026-04-24 02:13 | 31.45591 | -118.41255 | 165 ft | 0 kts | 176° |
| 2026-04-24 02:14 | 31.45590 | -118.41255 | 164 ft | 1 kts | 176° |
| 2026-04-24 02:14 | 31.45590 | -118.41256 | 163 ft | 0 kts | 176° |
| 2026-04-24 02:14 | 31.45591 | -118.41256 | 178 ft | 0 kts | 176° |
| 2026-04-24 02:15 | 31.45591 | -118.41255 | 196 ft | 0 kts | 176° |
| 2026-04-24 02:15 | 31.45587 | -118.41255 | 188 ft | 7 kts | 145° |
| 2026-04-24 02:15 | 31.45437 | -118.41186 | 198 ft | 44 kts | 175° |
| 2026-04-24 02:15 | 31.44948 | -118.41094 | 367 ft | 94 kts | 182° |
| 2026-04-24 02:16 | 31.44179 | -118.40962 | 376 ft | 128 kts | 180° |
| 2026-04-24 02:16 | 31.43186 | -118.40787 | 390 ft | 157 kts | 177° |
| 2026-04-24 02:16 | 31.42073 | -118.40579 | 427 ft | 164 kts | 176° |
| 2026-04-24 02:16 | 31.40961 | -118.40369 | 426 ft | 161 kts | 176° |
| 2026-04-24 02:17 | 31.39833 | -118.40141 | 429 ft | 164 kts | 176° |
| 2026-04-24 02:17 | 31.38713 | -118.39900 | 426 ft | 161 kts | 176° |
| 2026-04-24 02:17 | 31.37615 | -118.39659 | 434 ft | 157 kts | 176° |
| 2026-04-24 02:17 | 31.36501 | -118.39449 | 428 ft | 166 kts | 176° |
| 2026-04-24 02:18 | 31.35386 | -118.39181 | 430 ft | 166 kts | 161° |
| 2026-04-24 02:18 | 31.34370 | -118.38490 | 431 ft | 174 kts | 133° |
| 2026-04-24 02:18 | 31.33662 | -118.37336 | 429 ft | 176 kts | 105° |
| 2026-04-24 02:18 | 31.33424 | -118.35953 | 425 ft | 172 kts | 80° |
| 2026-04-24 02:19 | 31.33703 | -118.34623 | 431 ft | 167 kts | 53° |
| 2026-04-24 02:19 | 31.34278 | -118.33541 | 433 ft | 152 kts | 50° |
| 2026-04-24 02:19 | 31.34918 | -118.32598 | 431 ft | 151 kts | 45° |
| 2026-04-24 02:19 | 31.35597 | -118.31619 | 433 ft | 156 kts | 45° |
| 2026-04-24 02:20 | 31.36238 | -118.30624 | 433 ft | 153 kts | 45° |
| 2026-04-24 02:20 | 31.36888 | -118.29664 | 428 ft | 151 kts | 45° |
| 2026-04-24 02:20 | 31.37534 | -118.28679 | 437 ft | 153 kts | 45° |
| 2026-04-24 02:20 | 31.38177 | -118.27679 | 427 ft | 154 kts | 45° |
| 2026-04-24 02:21 | 31.38827 | -118.26690 | 432 ft | 155 kts | 45° |
| 2026-04-24 02:21 | 31.39487 | -118.25705 | 429 ft | 156 kts | 45° |
| 2026-04-24 02:21 | 31.40134 | -118.24663 | 433 ft | 160 kts | 45° |
| 2026-04-24 02:21 | 31.40801 | -118.23663 | 429 ft | 151 kts | 45° |
| 2026-04-24 02:22 | 31.41447 | -118.22686 | 426 ft | 153 kts | 45° |
| 2026-04-24 02:22 | 31.42090 | -118.21664 | 430 ft | 156 kts | 45° |
| 2026-04-24 02:22 | 31.42734 | -118.20637 | 428 ft | 153 kts | 45° |
| 2026-04-24 02:22 | 31.43386 | -118.19660 | 428 ft | 151 kts | 45° |
| 2026-04-24 02:23 | 31.44028 | -118.18665 | 431 ft | 156 kts | 44° |
| 2026-04-24 02:23 | 31.44684 | -118.17687 | 428 ft | 152 kts | 43° |
| 2026-04-24 02:23 | 31.45334 | -118.16721 | 428 ft | 155 kts | 44° |
| 2026-04-24 02:23 | 31.45989 | -118.15705 | 425 ft | 155 kts | 45° |
| 2026-04-24 02:24 | 31.46650 | -118.14739 | 430 ft | 151 kts | 44° |
| 2026-04-24 02:24 | 31.47305 | -118.13795 | 427 ft | 154 kts | 44° |
| 2026-04-24 02:24 | 31.47978 | -118.12839 | 422 ft | 149 kts | 44° |
| 2026-04-24 02:24 | 31.48639 | -118.11906 | 431 ft | 149 kts | 44° |
| 2026-04-24 02:25 | 31.49289 | -118.10943 | 428 ft | 152 kts | 44° |
| 2026-04-24 02:25 | 31.49929 | -118.10021 | 429 ft | 149 kts | 44° |
| 2026-04-24 02:25 | 31.50590 | -118.09061 | 428 ft | 153 kts | 44° |
| 2026-04-24 02:25 | 31.51229 | -118.08131 | 422 ft | 144 kts | 44° |
| 2026-04-24 02:26 | 31.51869 | -118.07209 | 424 ft | 150 kts | 44° |
| 2026-04-24 02:26 | 31.52523 | -118.06243 | 428 ft | 151 kts | 44° |
| 2026-04-24 02:26 | 31.53190 | -118.05303 | 426 ft | 147 kts | 43° |
| 2026-04-24 02:26 | 31.53825 | -118.04353 | 424 ft | 148 kts | 44° |
| 2026-04-24 02:27 | 31.54498 | -118.03399 | 427 ft | 151 kts | 40° |
| 2026-04-24 02:27 | 31.55209 | -118.02488 | 427 ft | 151 kts | 40° |
| 2026-04-24 02:27 | 31.55919 | -118.01578 | 423 ft | 155 kts | 39° |
| 2026-04-24 02:27 | 31.56638 | -118.00673 | 424 ft | 147 kts | 40° |
| 2026-04-24 02:28 | 31.57349 | -117.99784 | 427 ft | 152 kts | 39° |
| 2026-04-24 02:28 | 31.58075 | -117.98854 | 420 ft | 157 kts | 40° |
| 2026-04-24 02:28 | 31.58832 | -117.97968 | 422 ft | 152 kts | 39° |
| 2026-04-24 02:28 | 31.59553 | -117.97073 | 421 ft | 153 kts | 40° |
| 2026-04-24 02:29 | 31.60282 | -117.96172 | 425 ft | 149 kts | 39° |
| 2026-04-24 02:29 | 31.61013 | -117.95266 | 419 ft | 153 kts | 39° |
| 2026-04-24 02:29 | 31.61729 | -117.94382 | 421 ft | 150 kts | 40° |
| 2026-04-24 02:29 | 31.62461 | -117.93463 | 418 ft | 156 kts | 39° |
| 2026-04-24 02:30 | 31.63172 | -117.92554 | 422 ft | 147 kts | 39° |
| 2026-04-24 02:30 | 31.63885 | -117.91668 | 424 ft | 151 kts | 39° |
| 2026-04-24 02:30 | 31.64613 | -117.90744 | 420 ft | 147 kts | 39° |
| 2026-04-24 02:30 | 31.65319 | -117.89870 | 423 ft | 151 kts | 39° |
| 2026-04-24 02:31 | 31.66032 | -117.89004 | 425 ft | 145 kts | 39° |
| 2026-04-24 02:31 | 31.66721 | -117.88108 | 424 ft | 150 kts | 39° |
| 2026-04-24 02:31 | 31.67450 | -117.87220 | 429 ft | 150 kts | 39° |
| 2026-04-24 02:31 | 31.68152 | -117.86310 | 419 ft | 146 kts | 39° |
| 2026-04-24 02:32 | 31.68858 | -117.85416 | 423 ft | 152 kts | 39° |
| 2026-04-24 02:32 | 31.69571 | -117.84521 | 427 ft | 151 kts | 40° |
| 2026-04-24 02:32 | 31.70301 | -117.83632 | 425 ft | 152 kts | 40° |
| 2026-04-24 02:32 | 31.71059 | -117.82729 | 422 ft | 157 kts | 40° |
| 2026-04-24 02:33 | 31.71787 | -117.81831 | 422 ft | 150 kts | 40° |
| 2026-04-24 02:33 | 31.72541 | -117.80966 | 420 ft | 155 kts | 39° |
| 2026-04-24 02:33 | 31.73292 | -117.80080 | 417 ft | 151 kts | 40° |
| 2026-04-24 02:33 | 31.74033 | -117.79185 | 422 ft | 150 kts | 40° |
| 2026-04-24 02:34 | 31.74781 | -117.78304 | 426 ft | 152 kts | 40° |
| 2026-04-24 02:34 | 31.75528 | -117.77391 | 419 ft | 161 kts | 40° |
| 2026-04-24 02:34 | 31.76314 | -117.76519 | 418 ft | 147 kts | 37° |
| 2026-04-24 02:34 | 31.77075 | -117.75678 | 427 ft | 155 kts | 37° |
| 2026-04-24 02:35 | 31.77856 | -117.74838 | 418 ft | 150 kts | 37° |
| 2026-04-24 02:35 | 31.78613 | -117.74012 | 418 ft | 147 kts | 37° |
| 2026-04-24 02:35 | 31.79357 | -117.73191 | 423 ft | 151 kts | 37° |
| 2026-04-24 02:35 | 31.80122 | -117.72353 | 420 ft | 153 kts | 37° |
| 2026-04-24 02:36 | 31.80599 | -117.71804 | 417 ft | 146 kts | 37° |
| 2026-04-24 02:36 | 31.81329 | -117.70966 | 416 ft | 146 kts | 37° |
| 2026-04-24 02:36 | 31.82099 | -117.70149 | 415 ft | 151 kts | 37° |
| 2026-04-24 02:36 | 31.82899 | -117.69311 | 423 ft | 147 kts | 37° |
| 2026-04-24 02:37 | 31.83669 | -117.68484 | 427 ft | 151 kts | 37° |
| 2026-04-24 02:37 | 31.84465 | -117.67671 | 424 ft | 153 kts | 37° |
| 2026-04-24 02:37 | 31.85228 | -117.66809 | 424 ft | 152 kts | 37° |
| 2026-04-24 02:37 | 31.85993 | -117.65942 | 423 ft | 153 kts | 37° |
| 2026-04-24 02:38 | 31.86739 | -117.65087 | 417 ft | 153 kts | 37° |
| 2026-04-24 02:38 | 31.87512 | -117.64243 | 418 ft | 152 kts | 36° |
| 2026-04-24 02:38 | 31.88279 | -117.63383 | 420 ft | 149 kts | 36° |
| 2026-04-24 02:38 | 31.89050 | -117.62561 | 421 ft | 155 kts | 36° |
| 2026-04-24 02:39 | 31.89827 | -117.61724 | 420 ft | 148 kts | 35° |
| 2026-04-24 02:39 | 31.90564 | -117.60864 | 417 ft | 151 kts | 36° |
| 2026-04-24 02:39 | 31.91356 | -117.60047 | 414 ft | 152 kts | 35° |
| 2026-04-24 02:39 | 31.92121 | -117.59200 | 425 ft | 150 kts | 36° |
| 2026-04-24 02:40 | 31.92913 | -117.58383 | 417 ft | 153 kts | 36° |
| 2026-04-24 02:40 | 31.93697 | -117.57604 | 423 ft | 149 kts | 37° |
| 2026-04-24 02:40 | 31.94512 | -117.56813 | 420 ft | 149 kts | 36° |
| 2026-04-24 02:40 | 31.95291 | -117.55990 | 424 ft | 150 kts | 37° |
| 2026-04-24 02:41 | 31.96064 | -117.55197 | 415 ft | 148 kts | 36° |
| 2026-04-24 02:41 | 31.96876 | -117.54379 | 423 ft | 155 kts | 36° |
| 2026-04-24 02:41 | 31.97662 | -117.53575 | 413 ft | 151 kts | 36° |
| 2026-04-24 02:41 | 31.98472 | -117.52779 | 419 ft | 150 kts | 36° |
| 2026-04-24 02:42 | 31.99269 | -117.51994 | 415 ft | 152 kts | 36° |
| 2026-04-24 02:42 | 32.00062 | -117.51170 | 420 ft | 152 kts | 36° |
| 2026-04-24 02:42 | 32.00833 | -117.50342 | 414 ft | 144 kts | 37° |
| 2026-04-24 02:42 | 32.01596 | -117.49537 | 414 ft | 152 kts | 37° |
| 2026-04-24 02:43 | 32.02374 | -117.48717 | 414 ft | 148 kts | 36° |
| 2026-04-24 02:43 | 32.03153 | -117.47870 | 415 ft | 152 kts | 36° |
| 2026-04-24 02:43 | 32.03934 | -117.47076 | 432 ft | 150 kts | 36° |
| 2026-04-24 02:43 | 32.04744 | -117.46292 | 427 ft | 148 kts | 36° |
| 2026-04-24 02:44 | 32.05537 | -117.45518 | 432 ft | 147 kts | 36° |
| 2026-04-24 02:44 | 32.06334 | -117.44752 | 426 ft | 152 kts | 36° |
| 2026-04-24 02:44 | 32.07117 | -117.43994 | 428 ft | 148 kts | 36° |
| 2026-04-24 02:44 | 32.07902 | -117.43195 | 427 ft | 148 kts | 36° |
| 2026-04-24 02:45 | 32.08703 | -117.42422 | 423 ft | 149 kts | 36° |
| 2026-04-24 02:45 | 32.09497 | -117.41643 | 428 ft | 152 kts | 36° |
| 2026-04-24 02:45 | 32.10286 | -117.40856 | 420 ft | 151 kts | 36° |
| 2026-04-24 02:45 | 32.11094 | -117.40085 | 425 ft | 145 kts | 36° |
| 2026-04-24 02:46 | 32.11904 | -117.39328 | 427 ft | 147 kts | 34° |
| 2026-04-24 02:46 | 32.12763 | -117.38696 | 422 ft | 151 kts | 28° |
| 2026-04-24 02:46 | 32.13646 | -117.38073 | 425 ft | 150 kts | 28° |
| 2026-04-24 02:46 | 32.14539 | -117.37453 | 429 ft | 150 kts | 28° |
| 2026-04-24 02:47 | 32.15436 | -117.36811 | 422 ft | 150 kts | 28° |
| 2026-04-24 02:47 | 32.16319 | -117.36167 | 428 ft | 150 kts | 28° |
| 2026-04-24 02:47 | 32.17203 | -117.35530 | 427 ft | 147 kts | 28° |
| 2026-04-24 02:47 | 32.18086 | -117.34886 | 427 ft | 149 kts | 28° |
| 2026-04-24 02:48 | 32.18971 | -117.34250 | 424 ft | 152 kts | 28° |
| 2026-04-24 02:48 | 32.19857 | -117.33627 | 424 ft | 150 kts | 28° |
| 2026-04-24 02:48 | 32.20749 | -117.33004 | 421 ft | 153 kts | 28° |
| 2026-04-24 02:48 | 32.21653 | -117.32364 | 423 ft | 154 kts | 28° |
| 2026-04-24 02:49 | 32.22554 | -117.31731 | 426 ft | 151 kts | 28° |
| 2026-04-24 02:49 | 32.23454 | -117.31104 | 420 ft | 151 kts | 28° |
| 2026-04-24 02:49 | 32.24345 | -117.30460 | 417 ft | 150 kts | 28° |
| 2026-04-24 02:49 | 32.25229 | -117.29831 | 422 ft | 147 kts | 28° |
| 2026-04-24 02:50 | 32.26119 | -117.29196 | 420 ft | 150 kts | 28° |
| 2026-04-24 02:50 | 32.27006 | -117.28561 | 419 ft | 149 kts | 28° |
| 2026-04-24 02:50 | 32.27900 | -117.27934 | 422 ft | 155 kts | 26° |
| 2026-04-24 02:50 | 32.28842 | -117.27377 | 421 ft | 148 kts | 24° |
| 2026-04-24 02:51 | 32.29780 | -117.26829 | 423 ft | 154 kts | 24° |
| 2026-04-24 02:51 | 32.30717 | -117.26284 | 429 ft | 152 kts | 24° |
| 2026-04-24 02:51 | 32.31656 | -117.25714 | 424 ft | 151 kts | 24° |
| 2026-04-24 02:51 | 32.32592 | -117.25155 | 425 ft | 149 kts | 24° |
| 2026-04-24 02:52 | 32.33525 | -117.24604 | 415 ft | 149 kts | 24° |
| 2026-04-24 02:52 | 32.34477 | -117.24127 | 420 ft | 153 kts | 18° |
| 2026-04-24 02:52 | 32.35449 | -117.23694 | 418 ft | 149 kts | 18° |
| 2026-04-24 02:52 | 32.36417 | -117.23266 | 415 ft | 151 kts | 18° |
| 2026-04-24 02:53 | 32.37384 | -117.22839 | 419 ft | 151 kts | 18° |
| 2026-04-24 02:53 | 32.38368 | -117.22418 | 419 ft | 151 kts | 18° |
| 2026-04-24 02:53 | 32.39348 | -117.21994 | 410 ft | 149 kts | 18° |
| 2026-04-24 02:53 | 32.40326 | -117.21565 | 418 ft | 150 kts | 18° |
| 2026-04-24 02:54 | 32.41304 | -117.21134 | 416 ft | 151 kts | 18° |
| 2026-04-24 02:54 | 32.42289 | -117.20714 | 415 ft | 152 kts | 18° |
| 2026-04-24 02:54 | 32.43291 | -117.20319 | 418 ft | 150 kts | 14° |
| 2026-04-24 02:54 | 32.44290 | -117.19957 | 417 ft | 149 kts | 15° |
| 2026-04-24 02:55 | 32.45300 | -117.19611 | 411 ft | 149 kts | 15° |
| 2026-04-24 02:55 | 32.46297 | -117.19265 | 434 ft | 149 kts | 14° |
| 2026-04-24 02:55 | 32.47306 | -117.18903 | 423 ft | 153 kts | 15° |
| 2026-04-24 02:55 | 32.48316 | -117.18543 | 441 ft | 152 kts | 15° |
| 2026-04-24 02:56 | 32.49318 | -117.18184 | 443 ft | 149 kts | 14° |
| 2026-04-24 02:56 | 32.50317 | -117.17821 | 447 ft | 151 kts | 15° |
| 2026-04-24 02:56 | 32.51315 | -117.17472 | 452 ft | 150 kts | 14° |
| 2026-04-24 02:56 | 32.52313 | -117.17121 | 451 ft | 150 kts | 14° |
| 2026-04-24 02:57 | 32.53310 | -117.16776 | 442 ft | 149 kts | 14° |
| 2026-04-24 02:57 | 32.54313 | -117.16430 | 452 ft | 152 kts | 14° |
| 2026-04-24 02:57 | 32.55322 | -117.16083 | 451 ft | 149 kts | 15° |
| 2026-04-24 02:57 | 32.56325 | -117.15729 | 455 ft | 150 kts | 15° |
| 2026-04-24 02:58 | 32.57330 | -117.15374 | 452 ft | 151 kts | 15° |
| 2026-04-24 02:58 | 32.58332 | -117.15013 | 454 ft | 149 kts | 15° |
| 2026-04-24 02:58 | 32.59327 | -117.14661 | 452 ft | 152 kts | 14° |
| 2026-04-24 02:58 | 32.60332 | -117.14300 | 445 ft | 149 kts | 15° |
| 2026-04-24 02:59 | 32.61334 | -117.13960 | 506 ft | 143 kts | 14° |
| 2026-04-24 02:59 | 32.62214 | -117.13712 | 615 ft | 119 kts | 8° |
| 2026-04-24 02:59 | 32.63016 | -117.13580 | 629 ft | 118 kts | 4° |
| 2026-04-24 02:59 | 32.63849 | -117.13515 | 612 ft | 121 kts | 358° |
| 2026-04-24 03:00 | 32.64695 | -117.13536 | 536 ft | 117 kts | 355° |
| 2026-04-24 03:00 | 32.65463 | -117.13649 | 577 ft | 104 kts | 347° |
| 2026-04-24 03:00 | 32.66096 | -117.13837 | 565 ft | 90 kts | 341° |
| 2026-04-24 03:00 | 32.66686 | -117.14046 | 475 ft | 86 kts | 340° |
| 2026-04-24 03:01 | 32.67228 | -117.14294 | 453 ft | 79 kts | 330° |
| 2026-04-24 03:01 | 32.67706 | -117.14591 | 523 ft | 76 kts | 326° |
| 2026-04-24 03:01 | 32.68138 | -117.14946 | 558 ft | 75 kts | 322° |
| 2026-04-24 03:01 | 32.68528 | -117.15277 | 589 ft | 61 kts | 326° |
| 2026-04-24 03:02 | 32.68831 | -117.15522 | 593 ft | 43 kts | 323° |
| 2026-04-24 03:02 | 32.69046 | -117.15687 | 503 ft | 27 kts | 328° |
| 2026-04-24 03:02 | 32.69150 | -117.15746 | 479 ft | 7 kts | 330° |
| 2026-04-24 03:02 | 32.69158 | -117.15763 | 460 ft | 3 kts | 341° |
| 2026-04-24 03:03 | 32.69143 | -117.15772 | 419 ft | 1 kts | 339° |
| 2026-04-24 03:03 | 32.69151 | -117.15787 | 396 ft | 4 kts | 328° |
| 2026-04-24 03:03 | 32.69179 | -117.15824 | 382 ft | 8 kts | 324° |
| 2026-04-24 03:03 | 32.69202 | -117.15876 | 386 ft | 1 kts | 321° |
| 2026-04-24 03:04 | 32.69167 | -117.15828 | 349 ft | 6 kts | 329° |
| 2026-04-24 03:04 | 32.69206 | -117.15833 | 326 ft | 7 kts | 327° |
| 2026-04-24 03:04 | 32.69214 | -117.15864 | 311 ft | 2 kts | 329° |
| 2026-04-24 03:04 | 32.69206 | -117.15889 | 288 ft | 4 kts | 336° |
| 2026-04-24 03:05 | 32.69198 | -117.15927 | 264 ft | 6 kts | 340° |
| 2026-04-24 03:05 | 32.69215 | -117.15965 | 245 ft | 6 kts | 339° |
| 2026-04-24 03:05 | 32.69240 | -117.16000 | 239 ft | 5 kts | 343° |
| 2026-04-24 03:05 | 32.69268 | -117.16011 | 242 ft | 8 kts | 336° |
| 2026-04-24 03:06 | 32.69323 | -117.16018 | 267 ft | 7 kts | 334° |
| 2026-04-24 03:06 | 32.69347 | -117.16038 | 259 ft | 1 kts | 330° |
| 2026-04-24 03:06 | 32.69325 | -117.16029 | 228 ft | 5 kts | 338° |
| 2026-04-24 03:06 | 32.69362 | -117.16063 | 353 ft | 22 kts | 332° |
| 2026-04-24 03:07 | 32.69546 | -117.16247 | 803 ft | 47 kts | 326° |
| 2026-04-24 03:07 | 32.69840 | -117.16525 | 1261 ft | 62 kts | 322° |
| 2026-04-24 03:07 | 32.70235 | -117.16891 | 1343 ft | 80 kts | 323° |
| 2026-04-24 03:07 | 32.70695 | -117.17330 | 1365 ft | 92 kts | 321° |
| 2026-04-24 03:08 | 32.71198 | -117.17820 | 1314 ft | 93 kts | 322° |
| 2026-04-24 03:08 | 32.72241 | -117.18641 | 1377 ft | 90 kts | 343° |
| 2026-04-24 03:08 | 32.72855 | -117.18770 | 1349 ft | 91 kts | 14° |
| 2026-04-24 03:09 | 32.73478 | -117.18636 | 1272 ft | 92 kts | 33° |
| 2026-04-24 03:09 | 32.73984 | -117.18225 | 1169 ft | 89 kts | 52° |
| 2026-04-24 03:09 | 32.74302 | -117.17583 | 1021 ft | 91 kts | 62° |
| 2026-04-24 03:09 | 32.74586 | -117.16941 | 979 ft | 83 kts | 60° |
| 2026-04-24 03:10 | 32.74868 | -117.16399 | 783 ft | 66 kts | 33° |
| 2026-04-24 03:10 | 32.75036 | -117.16119 | 521 ft | 21 kts | 0° |
| 2026-04-24 03:10 | 32.75113 | -117.16067 | 369 ft | 6 kts | 356° |
| 2026-04-24 03:10 | 32.75124 | -117.16062 | 343 ft | 0 kts | 3° |
| 2026-04-24 03:11 | 32.75125 | -117.16062 | 343 ft | 0 kts | 3° |
| 2026-04-24 03:12 | 32.75126 | -117.16059 | 357 ft | 1 kts | 5° |
| 2026-04-24 03:12 | 32.75137 | -117.16058 | 382 ft | 6 kts | 19° |
| 2026-04-24 03:13 | 32.75167 | -117.16050 | 448 ft | 3 kts | 53° |
| 2026-04-24 03:13 | 32.75169 | -117.15959 | 504 ft | 15 kts | 148° |
| 2026-04-24 03:13 | 32.75130 | -117.15938 | 481 ft | 9 kts | 193° |
| 2026-04-24 03:13 | 32.75075 | -117.15954 | 514 ft | 15 kts | 244° |
| 2026-04-24 03:14 | 32.75070 | -117.16096 | 534 ft | 19 kts | 335° |
| 2026-04-24 03:14 | 32.75216 | -117.16106 | 520 ft | 24 kts | 64° |
| 2026-04-24 03:14 | 32.75213 | -117.15942 | 501 ft | 23 kts | 167° |
| 2026-04-24 03:14 | 32.75082 | -117.15933 | 501 ft | 22 kts | 236° |
| 2026-04-24 03:15 | 32.75060 | -117.16121 | 504 ft | 28 kts | 331° |
| 2026-04-24 03:15 | 32.75232 | -117.16110 | 487 ft | 34 kts | 82° |
| 2026-04-24 03:15 | 32.75195 | -117.15896 | 528 ft | 29 kts | 184° |
| 2026-04-24 03:15 | 32.75004 | -117.15954 | 551 ft | 30 kts | 267° |
| 2026-04-24 03:16 | 32.75043 | -117.16199 | 585 ft | 33 kts | 348° |
| 2026-04-24 03:16 | 32.75258 | -117.16177 | 612 ft | 33 kts | 71° |
| 2026-04-24 03:16 | 32.75266 | -117.15923 | 591 ft | 34 kts | 151° |
| 2026-04-24 03:16 | 32.75074 | -117.15892 | 550 ft | 32 kts | 236° |
| 2026-04-24 03:17 | 32.75008 | -117.16114 | 571 ft | 30 kts | 324° |
| 2026-04-24 03:17 | 32.75229 | -117.16144 | 548 ft | 34 kts | 71° |
| 2026-04-24 03:17 | 32.75228 | -117.15906 | 526 ft | 33 kts | 160° |
| 2026-04-24 03:17 | 32.75054 | -117.15921 | 502 ft | 29 kts | 275° |
| 2026-04-24 03:18 | 32.75093 | -117.16037 | 414 ft | 9 kts | 314° |
| 2026-04-24 03:18 | 32.75122 | -117.16062 | 352 ft | 3 kts | 328° |
| 2026-04-24 03:18 | 32.75127 | -117.16064 | 343 ft | 1 kts | 342° |
| 2026-04-24 03:21 | 32.75151 | -117.16063 | 432 ft | 11 kts | 312° |
| 2026-04-24 03:21 | 32.75204 | -117.16158 | 701 ft | 16 kts | 251° |
| 2026-04-24 03:22 | 32.75139 | -117.16300 | 1094 ft | 24 kts | 238° |
| 2026-04-24 03:22 | 32.74987 | -117.16616 | 1378 ft | 63 kts | 243° |
| 2026-04-24 03:22 | 32.74706 | -117.17177 | 1368 ft | 89 kts | 241° |
| 2026-04-24 03:22 | 32.74365 | -117.17842 | 1321 ft | 99 kts | 236° |
| 2026-04-24 03:23 | 32.73918 | -117.18523 | 1310 ft | 110 kts | 225° |
| 2026-04-24 03:23 | 32.73325 | -117.19134 | 1302 ft | 114 kts | 221° |
| 2026-04-24 03:23 | 32.72661 | -117.19645 | 1252 ft | 113 kts | 213° |
| 2026-04-24 03:23 | 32.72001 | -117.20114 | 1123 ft | 108 kts | 213° |
| 2026-04-24 03:24 | 32.71452 | -117.20576 | 977 ft | 82 kts | 205° |
| 2026-04-24 03:24 | 32.70968 | -117.20894 | 817 ft | 81 kts | 193° |
| 2026-04-24 03:24 | 32.70420 | -117.21083 | 672 ft | 77 kts | 173° |
| 2026-04-24 03:24 | 32.70054 | -117.21107 | 323 ft | 31 kts | 109° |
| 2026-04-24 03:25 | 32.69946 | -117.21039 | 54 ft | 7 kts | 113° |
| 2026-04-24 03:25 | 32.69936 | -117.21031 | 26 ft | 0 kts | 127° |
| 2026-04-24 03:25 | 32.69929 | -117.21019 | 25 ft | 6 kts | 122° |
| 2026-04-24 03:26 | 32.69921 | -117.20965 | 28 ft | 6 kts | 38° |
| 2026-04-24 03:26 | 32.69948 | -117.20944 | 29 ft | 5 kts | 32° |